Time;durP1;ratioP1;P1;durP2;ratioP2;P2;SDS_P1;SDS_P2;PMS_P1;PMS_P2;Temp;Humidity;BMP_temperature;BMP_pressure;BME280_temperature;BME280_humidity;BME280_pressure;Samples;Min_cycle;Max_cycle;Signal;HPM_P1;HPM_P2
2022/08/07 00:00:07;;;;;;;0.90;0.60;;;15.70;49.40;;;15.84;48.04;98644.94;5070211;28;20854;-69
2022/08/07 00:02:34;;;;;;;2.83;1.03;;;15.60;49.30;;;15.70;48.15;98628.00;5068644;28;20936;-70
2022/08/07 00:05:02;;;;;;;1.83;0.60;;;15.60;49.40;;;15.73;48.63;98639.25;5069808;28;20456;-69
2022/08/07 00:07:29;;;;;;;1.20;0.80;;;15.50;49.70;;;15.63;48.74;98630.84;5070200;28;20507;-69
2022/08/07 00:09:57;;;;;;;1.00;0.70;;;15.50;49.80;;;15.53;48.54;98628.66;5070605;28;20523;-70
2022/08/07 00:12:27;;;;;;;1.10;0.70;;;15.40;49.70;;;15.57;48.75;98635.31;5067472;28;20466;-70
2022/08/07 00:14:54;;;;;;;0.90;0.80;;;15.40;49.70;;;15.61;48.79;98632.13;5068627;28;20466;-69
2022/08/07 00:17:21;;;;;;;1.57;0.90;;;15.40;49.90;;;15.52;49.01;98631.63;5068839;28;20489;-70
2022/08/07 00:19:49;;;;;;;1.00;0.77;;;15.30;50.10;;;15.53;49.36;98634.09;5067578;28;20974;-70
2022/08/07 00:22:16;;;;;;;0.80;0.80;;;15.30;50.30;;;15.40;49.30;98626.16;5069697;28;20440;-71
2022/08/07 00:24:43;;;;;;;0.93;0.67;;;15.20;50.40;;;15.36;49.73;98633.09;5068514;28;20520;-70
2022/08/07 00:27:12;;;;;;;2.27;0.87;;;15.20;50.40;;;15.33;50.29;98639.88;5069082;28;20463;-69
2022/08/07 00:29:40;;;;;;;0.80;0.73;;;15.10;50.60;;;15.29;50.00;98641.38;5069142;28;20452;-69
2022/08/07 00:32:08;;;;;;;1.80;0.70;;;15.10;50.60;;;15.25;49.84;98638.28;5069146;28;20452;-69
2022/08/07 00:34:35;;;;;;;1.33;0.97;;;15.00;50.60;;;15.22;49.75;98641.47;5065461;28;20863;-69
2022/08/07 00:37:03;;;;;;;1.50;0.80;;;15.00;50.80;;;15.19;50.68;98638.38;5069395;28;21005;-70
2022/08/07 00:39:31;;;;;;;0.93;0.70;;;15.00;50.90;;;15.08;50.88;98637.25;5067414;28;20795;-69
2022/08/07 00:42:00;;;;;;;0.77;0.63;;;14.90;51.00;;;15.03;51.37;98635.25;5068837;28;20535;-70
2022/08/07 00:44:29;;;;;;;1.23;0.73;;;14.90;51.40;;;15.02;51.07;98634.41;5066484;28;20544;-70
2022/08/07 00:46:56;;;;;;;1.33;0.90;;;14.80;51.80;;;15.00;51.28;98636.53;5067365;28;20455;-69
2022/08/07 00:49:23;;;;;;;0.73;0.73;;;14.80;51.80;;;14.99;51.73;98645.75;5065775;28;20464;-70
2022/08/07 00:51:50;;;;;;;1.00;0.80;;;14.80;51.90;;;14.96;51.32;98650.81;5066555;28;20443;-70
2022/08/07 00:54:18;;;;;;;1.20;0.97;;;14.80;51.90;;;14.94;51.70;98642.03;5046892;28;20464;-69
2022/08/07 00:56:45;;;;;;;1.37;0.73;;;14.80;51.90;;;14.95;51.55;98644.56;5048225;28;20507;-69
2022/08/07 00:59:13;;;;;;;1.60;1.00;;;14.80;52.00;;;14.97;51.93;98637.00;5048998;28;20456;-70
2022/08/07 01:01:41;;;;;;;1.43;0.87;;;14.80;52.30;;;14.89;51.77;98629.13;5049008;28;20501;-70
2022/08/07 01:04:09;;;;;;;0.87;0.87;;;14.80;52.20;;;14.73;52.20;98630.59;5064831;28;20459;-70
2022/08/07 01:06:36;;;;;;;1.00;0.90;;;14.80;52.20;;;14.87;52.25;98639.41;5069708;28;20454;-70
2022/08/07 01:09:04;;;;;;;1.00;0.80;;;14.80;52.40;;;14.74;52.55;98637.69;5068143;28;20463;-69
2022/08/07 01:11:32;;;;;;;0.93;0.90;;;14.80;52.50;;;14.83;52.14;98643.66;5067462;28;20465;-70
2022/08/07 01:14:00;;;;;;;0.93;0.93;;;14.80;52.60;;;14.73;52.81;98628.69;5065331;28;20440;-69
2022/08/07 01:16:28;;;;;;;1.53;1.10;;;14.70;52.50;;;14.85;52.76;98638.81;5066879;28;20549;-70
2022/08/07 01:18:57;;;;;;;1.33;0.90;;;14.70;52.90;;;14.70;53.00;98631.00;5065476;28;20553;-70
2022/08/07 01:21:26;;;;;;;2.07;1.10;;;14.60;53.00;;;14.73;52.58;98631.41;5053217;28;20459;-70
2022/08/07 01:23:55;;;;;;;1.50;0.90;;;14.60;53.00;;;14.60;53.40;98628.81;5046401;28;20454;-70
2022/08/07 01:26:23;;;;;;;2.20;0.87;;;14.60;52.90;;;14.60;52.78;98620.66;5048356;28;20558;-70
2022/08/07 01:28:52;;;;;;;3.77;0.97;;;14.60;52.90;;;14.64;53.14;98631.91;5068155;28;20470;-69
2022/08/07 01:31:26;;;;;;;1.43;0.70;;;14.60;53.10;;;14.59;52.78;98632.59;5067884;28;20549;-70
2022/08/07 01:33:54;;;;;;;2.00;1.00;;;14.50;53.10;;;14.66;53.04;98627.91;5081848;28;20467;-70
2022/08/07 01:36:21;;;;;;;3.80;1.10;;;14.60;53.20;;;14.62;53.43;98632.13;5067833;28;20837;-70
2022/08/07 01:38:50;;;;;;;1.27;1.10;;;14.60;53.20;;;14.61;53.00;98627.75;5067985;28;20486;-69
2022/08/07 01:41:20;;;;;;;2.60;1.03;;;14.60;53.20;;;14.59;52.88;98636.16;5064173;28;20839;-69
2022/08/07 01:43:48;;;;;;;1.73;1.10;;;14.60;53.10;;;14.57;53.20;98632.00;5052417;28;20458;-69
2022/08/07 01:46:16;;;;;;;2.23;1.10;;;14.60;53.10;;;14.66;53.10;98635.22;5067582;28;20455;-69
2022/08/07 01:48:44;;;;;;;2.33;0.87;;;14.60;53.10;;;14.67;53.03;98634.19;5066878;28;20481;-69
2022/08/07 01:51:17;;;;;;;3.00;1.03;;;14.60;53.30;;;14.55;52.98;98639.53;5068997;28;20558;-69
2022/08/07 01:53:52;;;;;;;1.77;1.00;;;14.50;53.20;;;14.59;53.88;98633.44;5065274;28;20468;-69
2022/08/07 01:56:26;;;;;;;1.20;1.10;;;14.50;53.80;;;14.50;53.29;98642.13;5067939;28;20474;-70
2022/08/07 01:58:59;;;;;;;1.17;1.07;;;14.40;53.60;;;14.56;54.21;98635.75;5068185;28;20486;-69
2022/08/07 02:01:28;;;;;;;1.47;1.10;;;14.50;54.20;;;14.49;53.75;98637.75;5067421;28;20471;-70
2022/08/07 02:04:05;;;;;;;1.20;0.87;;;14.30;53.80;;;14.33;54.25;98637.28;5065739;28;20459;-69
2022/08/07 02:06:35;;;;;;;1.23;1.13;;;14.10;54.00;;;14.17;54.50;98638.69;5067547;28;20519;-69
2022/08/07 02:09:09;;;;;;;2.10;0.97;;;14.00;54.40;;;14.14;54.70;98637.22;5067496;28;20482;-69
2022/08/07 02:11:42;;;;;;;3.20;0.90;;;13.90;54.70;;;13.98;55.65;98641.34;5065430;28;20948;-69
2022/08/07 02:14:11;;;;;;;2.63;1.20;;;13.80;55.20;;;14.17;55.02;98630.53;5074283;28;20454;-69
2022/08/07 02:16:40;;;;;;;3.20;1.33;;;13.80;55.20;;;13.93;55.84;98632.22;5068203;28;20460;-68
2022/08/07 02:19:11;;;;;;;2.93;1.30;;;13.70;55.50;;;13.74;56.14;98632.16;5070888;28;20540;-68
2022/08/07 02:21:41;;;;;;;1.13;1.13;;;13.60;55.70;;;13.76;56.51;98632.75;5071020;28;20458;-70
2022/08/07 02:24:10;;;;;;;3.87;1.10;;;13.50;56.30;;;13.86;57.33;98624.94;5066104;28;20448;-70
2022/08/07 02:26:39;;;;;;;1.67;1.10;;;13.40;56.90;;;13.60;56.52;98629.53;5066760;28;20485;-70
2022/08/07 02:29:08;;;;;;;1.13;1.00;;;13.40;56.30;;;13.66;56.54;98624.28;5047167;28;20454;-70
2022/08/07 02:31:37;;;;;;;1.10;1.00;;;13.40;56.30;;;13.69;56.33;98629.25;5057687;28;20472;-69
2022/08/07 02:34:06;;;;;;;1.57;1.27;;;13.40;56.10;;;13.64;56.20;98626.38;5081833;28;21108;-70
2022/08/07 02:36:34;;;;;;;1.10;1.00;;;13.30;56.30;;;13.40;56.65;98618.78;5068027;28;20458;-70
2022/08/07 02:39:04;;;;;;;1.47;0.93;;;13.20;56.60;;;13.58;56.56;98620.78;5066958;28;20483;-69
2022/08/07 02:41:33;;;;;;;1.07;0.97;;;13.20;56.90;;;13.73;56.24;98627.78;5066893;28;20584;-69
2022/08/07 02:44:03;;;;;;;1.40;1.30;;;13.30;56.80;;;13.41;56.82;98609.59;5066068;28;20454;-69
2022/08/07 02:46:32;;;;;;;1.47;0.83;;;13.20;57.00;;;13.43;57.52;98617.53;5065566;28;21046;-69
2022/08/07 02:48:59;;;;;;;4.50;1.40;;;13.10;57.50;;;13.37;57.48;98615.69;5064613;28;20468;-70
2022/08/07 02:51:31;;;;;;;2.10;1.30;;;13.10;57.50;;;13.28;58.01;98615.97;5067525;28;20459;-68
2022/08/07 02:53:59;;;;;;;1.50;1.33;;;13.00;58.10;;;13.29;57.92;98612.19;5066882;28;20495;-69
2022/08/07 02:56:33;;;;;;;0.90;0.90;;;13.10;58.20;;;13.51;57.76;98611.84;5067829;28;21254;-70
2022/08/07 02:59:04;;;;;;;2.10;1.30;;;13.20;58.40;;;13.22;57.53;98573.41;5066239;28;20568;-70
2022/08/07 03:01:33;;;;;;;1.50;1.13;;;13.10;58.40;;;13.46;58.14;98600.84;5067063;28;20461;-70
2022/08/07 03:04:02;;;;;;;1.70;1.20;;;13.10;58.50;;;13.34;58.71;98603.38;5065000;28;20905;-70
2022/08/07 03:06:31;;;;;;;1.00;0.90;;;13.00;59.00;;;13.30;58.23;98596.72;5061982;28;20446;-69
2022/08/07 03:08:58;;;;;;;1.60;1.23;;;12.90;59.10;;;13.25;58.47;98602.81;5064283;28;20944;-70
2022/08/07 03:11:26;;;;;;;1.43;1.17;;;12.80;59.50;;;13.42;58.40;98594.13;5067477;28;20545;-69
2022/08/07 03:13:56;;;;;;;1.63;1.53;;;13.10;59.60;;;13.49;58.33;98594.09;5066392;28;20538;-70
2022/08/07 03:16:24;;;;;;;2.43;0.97;;;13.20;59.60;;;13.50;57.53;98591.19;5066165;28;20465;-70
2022/08/07 03:18:52;;;;;;;2.00;1.30;;;13.20;59.00;;;13.64;58.05;98597.34;5068296;28;20482;-70
2022/08/07 03:21:21;;;;;;;1.07;1.00;;;13.30;59.50;;;13.53;57.51;98598.88;5065887;28;20464;-70
2022/08/07 03:23:50;;;;;;;2.07;1.10;;;13.30;59.00;;;13.63;58.04;98594.84;5066440;28;20453;-69
2022/08/07 03:26:20;;;;;;;3.00;1.53;;;13.40;59.20;;;13.74;56.99;98591.44;5066360;28;20450;-69
2022/08/07 03:28:49;;;;;;;3.40;1.10;;;13.40;58.90;;;13.66;57.58;98591.69;5063704;28;20461;-70
2022/08/07 03:31:19;;;;;;;1.13;1.03;;;13.30;59.60;;;13.56;57.71;98595.72;5064006;28;20471;-69
2022/08/07 03:33:49;;;;;;;3.00;1.10;;;13.20;59.70;;;13.35;58.09;98593.34;5061773;28;20856;-69
2022/08/07 03:36:18;;;;;;;1.50;1.40;;;13.00;59.60;;;13.12;57.73;98546.75;5067039;28;20454;-70
2022/08/07 03:38:48;;;;;;;1.90;1.20;;;13.10;59.60;;;13.55;57.69;98587.81;5066565;28;20473;-69
2022/08/07 03:41:16;;;;;;;1.70;1.37;;;13.30;59.50;;;13.53;57.74;98600.78;5067398;28;20444;-69
2022/08/07 03:43:44;;;;;;;3.17;1.30;;;13.20;59.70;;;13.39;58.50;98602.72;5067132;28;20783;-70
2022/08/07 03:46:12;;;;;;;1.40;1.23;;;13.00;59.90;;;13.42;58.50;98602.28;5064210;28;20906;-70
2022/08/07 03:48:42;;;;;;;1.40;1.20;;;13.00;60.20;;;13.22;58.84;98605.97;5066759;28;20802;-70
2022/08/07 03:51:11;;;;;;;1.80;1.10;;;12.90;60.40;;;13.18;58.99;98599.31;5066558;28;20445;-70
2022/08/07 03:53:39;;;;;;;1.20;1.10;;;12.80;60.70;;;13.09;59.31;98595.19;5067139;28;20438;-70
2022/08/07 03:56:08;;;;;;;2.87;1.67;;;12.80;61.10;;;13.13;59.55;98599.16;5089852;28;20484;-70
2022/08/07 03:58:36;;;;;;;1.43;1.13;;;12.70;61.70;;;13.14;59.51;98598.09;5051171;28;20532;-69
2022/08/07 04:01:04;;;;;;;1.90;1.00;;;12.80;61.70;;;12.97;59.69;98592.34;5060332;28;20908;-69
2022/08/07 04:03:32;;;;;;;2.03;1.27;;;12.70;62.00;;;12.88;60.57;98599.91;5071745;28;20445;-68
2022/08/07 04:06:01;;;;;;;4.43;1.40;;;12.60;62.20;;;12.90;60.68;98603.22;5071042;28;20447;-68
2022/08/07 04:08:29;;;;;;;1.50;1.40;;;12.50;63.10;;;12.87;60.30;98604.47;5066481;28;20824;-71
2022/08/07 04:10:57;;;;;;;1.50;1.40;;;12.50;62.90;;;12.85;60.45;98606.56;5069509;28;20457;-71
2022/08/07 04:13:25;;;;;;;1.43;1.33;;;12.50;63.20;;;12.87;60.21;98607.19;5100994;28;20490;-71
2022/08/07 04:15:52;;;;;;;1.87;1.30;;;12.50;63.30;;;12.88;60.66;98610.75;5066597;28;20452;-71
2022/08/07 04:18:19;;;;;;;1.67;1.10;;;12.50;63.60;;;12.81;60.77;98605.34;5068479;28;20464;-68
2022/08/07 04:20:47;;;;;;;2.23;1.50;;;12.50;63.60;;;12.87;60.87;98611.78;5070529;28;20454;-71
2022/08/07 04:23:16;;;;;;;2.40;1.50;;;12.50;64.20;;;12.82;60.75;98611.63;5069353;28;20924;-69
2022/08/07 04:25:45;;;;;;;3.70;1.50;;;12.50;64.10;;;12.85;60.55;98617.41;5068056;28;20464;-69
2022/08/07 04:28:12;;;;;;;1.50;1.30;;;12.50;64.00;;;12.88;60.48;98610.75;5067737;28;20458;-69
2022/08/07 04:30:40;;;;;;;2.80;1.30;;;12.50;64.00;;;12.90;60.23;98608.63;5069223;28;21194;-69
2022/08/07 04:33:10;;;;;;;3.67;1.33;;;12.60;64.10;;;13.36;59.59;98627.59;5067807;28;20476;-69
2022/08/07 04:35:38;;;;;;;1.37;1.27;;;12.90;63.90;;;14.58;55.66;98611.91;5067856;28;20450;-70
2022/08/07 04:38:07;;;;;;;2.10;1.47;;;14.00;62.50;;;15.64;52.75;98609.84;5068070;28;20486;-70
2022/08/07 04:40:39;;;;;;;2.63;1.20;;;15.10;60.50;;;16.37;50.48;98613.22;5068889;28;20512;-69
2022/08/07 04:43:07;;;;;;;1.13;1.03;;;16.10;58.20;;;16.85;48.51;98615.84;5069085;28;20536;-70
2022/08/07 04:45:45;;;;;;;1.30;1.20;;;16.90;56.30;;;17.55;47.11;98616.66;5065855;28;20796;-68
2022/08/07 04:48:24;;;;;;;1.30;1.10;;;17.70;55.10;;;18.34;45.30;98607.75;5060221;28;20445;-69
2022/08/07 04:51:02;;;;;;;3.60;1.83;;;18.40;54.10;;;17.77;46.07;98621.38;5068652;28;20810;-69
2022/08/07 04:53:39;;;;;;;2.13;1.20;;;18.40;52.90;;;17.21;47.14;98613.03;5068789;28;20866;-69
2022/08/07 04:56:20;;;;;;;1.20;1.10;;;18.10;52.80;;;17.38;46.57;98613.09;5069041;28;20641;-70
2022/08/07 04:58:53;;;;;;;1.33;1.03;;;17.80;52.80;;;17.62;46.29;98623.84;5060290;28;20843;-69
2022/08/07 05:01:30;;;;;;;2.13;1.03;;;17.90;52.70;;;18.27;44.65;98618.88;5062065;28;20532;-70
2022/08/07 05:04:06;;;;;;;1.23;1.13;;;18.60;52.00;;;18.06;44.74;98621.31;5067299;28;20517;-69
2022/08/07 05:06:42;;;;;;;1.10;1.00;;;18.60;51.50;;;17.93;45.06;98621.63;5068936;28;20526;-70
2022/08/07 05:09:18;;;;;;;2.00;1.00;;;18.40;51.30;;;17.88;45.20;98624.28;5067334;28;20452;-70
2022/08/07 05:11:52;;;;;;;1.00;0.90;;;18.30;51.50;;;18.02;44.85;98616.56;5067601;28;20467;-70
2022/08/07 05:14:26;;;;;;;1.50;0.90;;;18.30;51.40;;;17.87;45.16;98619.91;5067922;28;20448;-70
2022/08/07 05:16:59;;;;;;;1.37;1.00;;;18.30;51.30;;;17.73;45.17;98606.56;5062545;28;20459;-71
2022/08/07 05:19:31;;;;;;;2.10;0.70;;;18.20;51.10;;;18.06;45.06;98613.13;5072055;28;20495;-69
2022/08/07 05:22:02;;;;;;;1.13;1.03;;;18.40;51.40;;;18.80;43.21;98602.91;5067832;28;20524;-69
2022/08/07 05:24:31;;;;;;;2.17;0.87;;;19.00;50.90;;;19.72;41.48;98608.81;5067530;28;20456;-69
2022/08/07 05:27:02;;;;;;;2.57;1.00;;;19.80;50.40;;;19.62;40.98;98604.88;5068495;28;20468;-70
2022/08/07 05:29:33;;;;;;;1.10;0.90;;;20.30;49.30;;;19.72;41.28;98606.88;5067627;28;20447;-70
2022/08/07 05:32:02;;;;;;;2.50;1.10;;;20.20;49.40;;;19.40;41.56;98608.50;5066226;28;20452;-70
2022/08/07 05:34:30;;;;;;;1.20;1.00;;;20.00;49.10;;;19.12;41.82;98617.81;5065624;28;20449;-69
2022/08/07 05:36:58;;;;;;;2.07;0.93;;;19.90;48.90;;;18.62;43.46;98615.00;5069666;28;20465;-69
2022/08/07 05:39:26;;;;;;;1.70;1.00;;;19.30;49.40;;;18.46;43.28;98618.63;5067137;28;20472;-70
2022/08/07 05:41:54;;;;;;;1.40;1.30;;;19.10;49.40;;;18.72;42.91;98619.78;5069590;28;20796;-68
2022/08/07 05:44:23;;;;;;;1.20;0.90;;;19.00;49.70;;;18.62;43.38;98615.00;5066100;28;20456;-69
2022/08/07 05:46:51;;;;;;;1.13;0.97;;;18.90;49.70;;;19.05;42.00;98617.19;5065577;28;20932;-70
2022/08/07 05:49:20;;;;;;;0.80;0.80;;;19.40;49.40;;;19.42;41.60;98615.66;5066618;28;20447;-71
2022/08/07 05:51:47;;;;;;;6.10;1.20;;;19.80;49.30;;;19.36;42.28;98620.25;5084537;28;20440;-70
2022/08/07 05:54:17;;;;;;;1.57;1.17;;;19.90;49.20;;;20.30;40.20;98624.59;5066376;28;20448;-70
2022/08/07 05:56:46;;;;;;;1.57;0.83;;;20.70;48.60;;;19.85;40.65;98623.97;5049995;28;20658;-70
2022/08/07 05:59:19;;;;;;;0.97;0.80;;;20.40;48.30;;;20.21;39.97;98618.78;5049531;28;20577;-69
2022/08/07 06:01:49;;;;;;;1.30;1.17;;;20.80;48.30;;;20.99;39.29;98614.53;5064194;28;20445;-65
2022/08/07 06:04:19;;;;;;;1.60;0.90;;;21.30;48.50;;;21.00;38.55;98610.69;5064035;28;20449;-67
2022/08/07 06:06:48;;;;;;;1.10;1.03;;;21.80;47.40;;;20.88;38.84;98619.16;5067845;28;20457;-66
2022/08/07 06:09:17;;;;;;;0.97;0.90;;;21.60;47.30;;;19.22;41.56;98617.94;5065064;28;20460;-65
2022/08/07 06:11:45;;;;;;;1.50;1.20;;;20.50;47.30;;;18.72;43.33;98624.41;5067366;28;20460;-66
2022/08/07 06:14:12;;;;;;;1.50;1.20;;;19.40;48.60;;;17.80;45.28;98626.34;5065720;28;21064;-66
2022/08/07 06:16:40;;;;;;;1.60;1.13;;;18.30;49.60;;;17.07;46.76;98624.25;5064836;28;20517;-66
2022/08/07 06:19:09;;;;;;;1.40;1.20;;;17.40;50.50;;;16.91;47.39;98623.09;5063969;28;20830;-65
2022/08/07 06:21:37;;;;;;;1.83;1.10;;;17.00;51.30;;;17.01;47.49;98625.22;5068307;28;20471;-66
2022/08/07 06:24:05;;;;;;;2.63;1.13;;;17.00;51.80;;;16.92;47.39;98623.91;5062745;28;20559;-66
2022/08/07 06:26:33;;;;;;;1.47;1.33;;;16.90;51.80;;;17.20;47.73;98623.13;5083495;28;20492;-65
2022/08/07 06:29:02;;;;;;;2.47;1.10;;;17.00;52.60;;;17.51;47.36;98623.66;5067879;28;20463;-66
2022/08/07 06:31:30;;;;;;;1.73;0.90;;;17.10;52.60;;;17.44;46.60;98630.34;5067030;28;20484;-65
2022/08/07 06:33:58;;;;;;;1.07;0.97;;;17.30;52.20;;;17.36;47.05;98631.59;5066433;28;20453;-66
2022/08/07 06:36:26;;;;;;;1.37;1.27;;;17.20;52.30;;;17.26;47.45;98633.06;5067490;28;20450;-66
2022/08/07 06:38:54;;;;;;;1.97;1.30;;;17.20;52.50;;;17.28;47.91;98630.91;5064771;28;20473;-67
2022/08/07 06:41:28;;;;;;;1.03;0.90;;;17.20;52.50;;;17.45;47.63;98632.84;5064166;28;20883;-67
2022/08/07 06:43:57;;;;;;;1.17;1.07;;;17.30;52.80;;;17.73;47.23;98639.34;5061374;28;21052;-66
2022/08/07 06:46:25;;;;;;;1.30;1.00;;;17.50;52.90;;;17.59;47.00;98640.75;5065742;28;20559;-66
2022/08/07 06:48:52;;;;;;;1.00;1.00;;;17.50;52.60;;;17.54;47.40;98636.00;5066680;28;20478;-66
2022/08/07 06:51:30;;;;;;;1.20;1.10;;;17.50;52.60;;;17.51;47.40;98588.16;5067003;28;20456;-67
2022/08/07 06:54:02;;;;;;;2.40;1.33;;;17.60;53.00;;;18.24;46.75;98628.44;5063320;28;20460;-67
2022/08/07 06:56:42;;;;;;;1.40;1.20;;;17.80;53.30;;;18.28;46.12;98631.50;5066561;28;20455;-67
2022/08/07 06:59:14;;;;;;;1.63;1.40;;;18.00;52.60;;;18.05;46.49;98633.34;5067574;28;20498;-66
2022/08/07 07:01:43;;;;;;;1.30;1.17;;;17.90;52.50;;;18.35;46.05;98621.19;5067268;28;20950;-66
2022/08/07 07:04:11;;;;;;;1.03;0.93;;;18.00;52.70;;;18.53;45.84;98627.47;5064945;28;20484;-67
2022/08/07 07:06:38;;;;;;;1.23;1.13;;;18.20;52.70;;;18.66;46.31;98627.09;5066680;28;20530;-66
2022/08/07 07:09:24;;;;;;;1.20;1.10;;;18.40;53.00;;;18.62;45.52;98625.09;5065662;28;20478;-66
2022/08/07 07:12:31;;;;;;;1.50;1.37;;;18.50;52.50;;;18.54;45.37;98579.88;5066606;28;20464;-67
2022/08/07 07:15:06;;;;;;;0.90;0.90;;;18.50;52.70;;;19.06;44.87;98621.59;5064623;28;20816;-67
2022/08/07 07:17:38;;;;;;;1.40;1.30;;;18.70;52.50;;;18.98;46.06;98622.84;5065933;28;20460;-66
2022/08/07 07:20:13;;;;;;;1.83;1.27;;;18.70;53.20;;;19.16;45.30;98635.38;5064176;28;20540;-67
2022/08/07 07:22:41;;;;;;;1.63;1.33;;;18.80;52.70;;;18.94;45.59;98624.41;5064302;28;20455;-66
2022/08/07 07:25:13;;;;;;;1.93;1.20;;;18.80;52.50;;;19.13;45.60;98613.97;5064447;28;20502;-67
2022/08/07 07:27:48;;;;;;;1.37;1.20;;;18.90;52.80;;;19.28;45.49;98610.59;5066562;28;20483;-67
2022/08/07 07:30:16;;;;;;;1.53;1.33;;;19.00;52.90;;;19.19;45.38;98590.22;5067540;28;20444;-67
2022/08/07 07:32:45;;;;;;;2.30;1.27;;;19.10;52.70;;;19.25;45.51;98614.66;5067693;28;20815;-67
2022/08/07 07:35:14;;;;;;;1.63;1.33;;;19.00;52.80;;;19.64;45.07;98610.09;5057916;28;20472;-67
2022/08/07 07:37:44;;;;;;;1.33;1.23;;;19.20;53.10;;;19.93;44.42;98615.28;5059805;28;20464;-66
2022/08/07 07:40:17;;;;;;;2.03;1.70;;;19.50;53.00;;;20.14;44.21;98609.97;5070125;28;20498;-67
2022/08/07 07:42:46;;;;;;;1.40;1.30;;;19.60;52.80;;;20.31;43.98;98604.28;5069230;28;20453;-67
2022/08/07 07:45:16;;;;;;;1.50;1.33;;;19.80;52.70;;;20.29;43.52;98601.00;5069993;28;21234;-68
2022/08/07 07:47:46;;;;;;;1.80;1.23;;;19.90;52.40;;;20.35;43.26;98600.75;5064817;28;20813;-67
2022/08/07 07:50:15;;;;;;;1.83;1.40;;;20.00;52.20;;;20.19;43.65;98599.00;5070972;28;20446;-66
2022/08/07 07:52:45;;;;;;;1.70;1.30;;;19.90;52.10;;;20.15;43.17;98600.66;5067180;28;20961;-65
2022/08/07 07:55:18;;;;;;;1.50;1.40;;;19.90;52.00;;;20.23;43.07;98591.91;5067418;28;20484;-67
2022/08/07 07:57:49;;;;;;;1.60;1.50;;;19.90;52.10;;;20.50;43.38;98601.94;5064831;28;20473;-66
2022/08/07 08:00:19;;;;;;;1.50;1.40;;;20.10;52.20;;;20.49;42.34;98595.63;5056952;28;20488;-67
2022/08/07 08:02:49;;;;;;;3.00;1.40;;;20.20;51.60;;;20.44;42.30;98597.53;5058205;28;20463;-66
2022/08/07 08:05:18;;;;;;;1.60;1.50;;;20.20;51.20;;;20.28;42.48;98594.69;5066901;28;20536;-67
2022/08/07 08:07:46;;;;;;;2.70;1.30;;;20.10;51.00;;;20.49;41.91;98570.09;5066074;28;20526;-66
2022/08/07 08:10:16;;;;;;;2.17;1.50;;;20.20;51.00;;;20.74;42.03;98585.03;5069966;28;20465;-66
2022/08/07 08:12:45;;;;;;;1.30;1.20;;;20.30;51.10;;;20.67;41.62;98586.09;5070126;28;20491;-67
2022/08/07 08:15:12;;;;;;;1.87;1.40;;;20.50;50.70;;;20.72;40.14;98577.06;5102495;28;20451;-66
2022/08/07 08:17:42;;;;;;;1.63;1.50;;;20.50;49.50;;;20.78;39.78;98573.25;5066642;28;20534;-67
2022/08/07 08:20:12;;;;;;;2.10;1.40;;;20.60;49.20;;;20.88;39.72;98568.91;5068090;28;20606;-67
2022/08/07 08:28:25;;;;;;;2.03;1.13;;;20.90;48.40;;;21.31;37.96;98576.97;5064510;28;20451;-67
2022/08/07 08:30:57;;;;;;;1.67;1.20;;;21.00;48.00;;;21.22;37.22;98585.75;5070521;28;20966;-67
2022/08/07 08:33:29;;;;;;;1.80;1.23;;;21.00;47.20;;;21.47;36.75;98586.88;5064993;28;20868;-67
2022/08/07 08:35:58;;;;;;;2.73;1.37;;;21.10;47.00;;;21.14;37.57;98583.50;5068215;28;20480;-67
2022/08/07 08:38:39;;;;;;;2.33;1.00;;;21.00;47.00;;;21.36;37.94;98585.22;5067919;28;20963;-68
2022/08/07 08:41:18;;;;;;;2.30;1.50;;;21.00;47.90;;;21.47;36.91;98575.91;5068196;28;20533;-66
2022/08/07 08:44:02;;;;;;;1.40;1.30;;;21.10;46.90;;;21.58;36.93;98576.72;5068593;28;20534;-68
2022/08/07 08:46:42;;;;;;;1.93;1.37;;;21.20;46.80;;;21.92;36.98;98581.69;5069441;28;20499;-67
2022/08/07 08:49:20;;;;;;;1.27;1.20;;;21.40;47.60;;;21.70;37.13;98573.72;5068421;28;20986;-66
2022/08/07 08:51:57;;;;;;;1.50;1.30;;;21.40;47.50;;;21.57;37.55;98568.72;5050825;28;20507;-67
2022/08/07 08:54:32;;;;;;;1.30;1.20;;;21.30;47.40;;;21.68;36.35;98553.09;5047995;28;20890;-67
2022/08/07 08:57:08;;;;;;;1.17;1.07;;;21.40;46.80;;;21.58;35.97;98575.88;5056458;28;20460;-68
2022/08/07 08:59:47;;;;;;;3.03;1.37;;;21.30;45.80;;;21.40;35.87;98566.28;5047561;28;20437;-67
2022/08/07 09:02:27;;;;;;;1.87;1.20;;;21.20;45.70;;;21.57;36.09;98572.31;5053117;28;20823;-68
2022/08/07 09:05:03;;;;;;;1.30;1.10;;;21.20;46.10;;;21.60;36.47;98560.78;5064554;28;20461;-67
2022/08/07 09:07:40;;;;;;;1.43;1.30;;;21.30;46.50;;;21.87;36.38;98561.59;5068214;28;20449;-67
2022/08/07 09:10:18;;;;;;;1.53;1.03;;;21.40;46.80;;;21.70;35.72;98576.47;5069295;28;20523;-67
2022/08/07 09:12:58;;;;;;;1.10;1.10;;;21.50;45.90;;;21.93;34.91;98568.75;5067446;28;20487;-67
2022/08/07 09:15:37;;;;;;;3.30;1.10;;;21.50;45.60;;;21.96;35.06;98559.13;5067129;28;20467;-66
2022/08/07 09:18:21;;;;;;;1.13;1.03;;;21.60;45.80;;;21.92;35.75;98564.38;5080312;28;20467;-67
2022/08/07 09:20:59;;;;;;;1.33;1.10;;;21.50;46.00;;;21.98;35.32;98560.50;5068343;28;20526;-66
2022/08/07 09:23:42;;;;;;;1.50;1.40;;;21.60;45.70;;;22.09;35.18;98561.28;5069080;28;20461;-67
2022/08/07 09:26:24;;;;;;;2.90;0.93;;;21.70;45.60;;;22.02;35.18;98561.59;5066984;28;20445;-66
2022/08/07 09:28:59;;;;;;;0.97;0.80;;;21.70;45.50;;;21.96;35.28;98567.38;5065947;28;20480;-67
2022/08/07 09:31:38;;;;;;;3.63;1.40;;;21.70;45.40;;;21.89;35.09;98564.91;5068214;28;20486;-66
2022/08/07 09:34:15;;;;;;;1.10;1.00;;;21.70;45.20;;;21.66;35.63;98569.88;5064121;28;20481;-66
2022/08/07 09:36:53;;;;;;;3.73;1.40;;;21.50;45.40;;;21.76;35.43;98553.38;5066559;28;20462;-67
2022/08/07 09:39:36;;;;;;;1.47;1.30;;;21.50;45.50;;;21.95;35.58;98550.06;5067411;28;20526;-67
2022/08/07 09:42:11;;;;;;;1.77;1.00;;;21.60;45.70;;;22.15;35.49;98540.09;5060957;28;20448;-68
2022/08/07 09:44:53;;;;;;;1.73;1.17;;;21.80;45.80;;;22.03;35.00;98546.72;5065708;28;20455;-66
2022/08/07 09:47:33;;;;;;;1.13;1.03;;;21.90;45.20;;;22.02;35.13;98536.00;5067706;28;20460;-67
2022/08/07 09:50:10;;;;;;;1.20;0.97;;;21.70;45.30;;;22.19;35.16;98531.00;5068995;28;20445;-66
2022/08/07 09:52:43;;;;;;;1.40;1.30;;;21.80;45.60;;;22.19;35.12;98532.94;5068019;28;20486;-67
2022/08/07 09:55:18;;;;;;;1.50;1.00;;;21.90;45.40;;;22.03;34.56;98482.66;5065725;28;20447;-67
2022/08/07 09:58:09;;;;;;;1.23;1.13;;;22.00;45.20;;;22.66;34.33;98527.28;5083226;28;20539;-67
2022/08/07 10:01:02;;;;;;;1.40;1.30;;;22.20;45.40;;;22.66;34.27;98519.84;5045575;28;20563;-67
2022/08/07 10:03:45;;;;;;;1.43;1.17;;;22.30;45.20;;;22.59;33.62;98506.38;5061461;28;20454;-67
2022/08/07 10:06:58;;;;;;;1.47;1.00;;;22.40;44.60;;;22.74;33.12;98507.41;5067626;28;20475;-67
2022/08/07 10:09:46;;;;;;;1.07;0.97;;;22.40;44.20;;;22.76;31.54;98514.28;5010547;28;20535;-68
2022/08/07 10:12:41;;;;;;;1.43;1.23;;;22.40;42.80;;;22.93;32.03;98510.34;5091367;28;20459;-68
2022/08/07 10:15:31;;;;;;;1.33;1.20;;;22.50;43.10;;;22.93;31.77;98505.63;5067897;28;20776;-67
2022/08/07 10:18:22;;;;;;;2.10;1.00;;;22.60;43.30;;;22.98;31.86;98506.72;5065312;28;22171;-71
2022/08/07 10:21:12;;;;;;;1.00;0.90;;;22.50;43.40;;;23.14;32.32;98507.44;5068238;28;20472;-67
2022/08/07 10:23:53;;;;;;;1.17;0.90;;;22.60;43.90;;;23.17;32.88;98498.59;5067971;28;20446;-68
2022/08/07 10:26:40;;;;;;;1.77;0.93;;;22.80;44.00;;;23.08;32.26;98506.66;5066305;28;20459;-67
2022/08/07 10:29:52;;;;;;;0.97;0.97;;;22.80;43.60;;;23.16;32.86;98496.94;5046630;28;20488;-68
2022/08/07 10:32:40;;;;;;;1.70;1.20;;;22.70;43.70;;;23.37;31.90;98492.13;5047196;28;20453;-67
2022/08/07 10:35:20;;;;;;;3.13;1.10;;;22.80;43.60;;;23.33;31.27;98480.03;5061922;28;20964;-67
2022/08/07 10:38:12;;;;;;;1.70;1.00;;;22.90;43.20;;;23.33;30.93;98480.03;5065290;28;20465;-68
2022/08/07 10:40:47;;;;;;;2.00;1.20;;;22.90;42.60;;;23.21;31.77;98474.88;5046932;28;20517;-68
2022/08/07 10:43:19;;;;;;;3.70;1.23;;;22.90;42.90;;;23.33;31.90;98480.03;5047326;28;20485;-67
2022/08/07 10:45:49;;;;;;;2.80;1.10;;;23.00;43.20;;;23.61;31.44;98477.59;5046857;28;20465;-67